TAF and METAR

Could not understand the following METAR

SVMI 290202Z AUTO 08004KT NCD ///// Q1011

TAF for Simón Bolívar International Airport

TAF SVMI 282200Z 2900/3000 09003KT 9999 BKN016 TX33/2918Z TN23/2908Z TEMPO 2900/2904 00000KT 8000 DZ BKN016 FM290500 00000KT 9000 DZ BKN016
Report created 29. sep 00:00

between 29. sep 02:00 - 30. sep 02:00

wind 3 knots from E (090°) visibility > 10km broken clouds (~75% cover) at 1600 feet Max temperature 33° expected today at around 20 o'clock Min temperature 23° expected today at around 10 o'clock

temporarily between 29. sep 02:00 - 29. sep 06:00

wind 0 knots from N (000°) visibility 8000 meters drizzle broken clouds (~75% cover) at 1600 feet

From 29. sep 07:00

wind 0 knots from N (000°) visibility 9000 meters drizzle broken clouds (~75% cover) at 1600 feet